sensor_id;sensor_type;location;lat;lon;timestamp;P1;durP1;ratioP1;P2;durP2;ratioP2
7104;SDS011;3594;42.152;24.714;2023-04-15T00:00:41;7.65;;;3.60;;
7104;SDS011;3594;42.152;24.714;2023-04-15T00:03:07;4.68;;;3.17;;
7104;SDS011;3594;42.152;24.714;2023-04-15T00:05:32;7.18;;;3.65;;
7104;SDS011;3594;42.152;24.714;2023-04-15T00:07:59;5.30;;;3.13;;
7104;SDS011;3594;42.152;24.714;2023-04-15T00:10:25;6.68;;;3.53;;
7104;SDS011;3594;42.152;24.714;2023-04-15T00:12:51;5.18;;;3.13;;
7104;SDS011;3594;42.152;24.714;2023-04-15T00:15:17;5.10;;;3.30;;
7104;SDS011;3594;42.152;24.714;2023-04-15T00:17:43;6.40;;;3.58;;
7104;SDS011;3594;42.152;24.714;2023-04-15T00:20:08;5.78;;;3.25;;
7104;SDS011;3594;42.152;24.714;2023-04-15T00:22:34;5.07;;;3.30;;
7104;SDS011;3594;42.152;24.714;2023-04-15T00:25:00;5.45;;;3.15;;
7104;SDS011;3594;42.152;24.714;2023-04-15T00:27:26;5.03;;;3.53;;
7104;SDS011;3594;42.152;24.714;2023-04-15T00:29:51;7.10;;;3.80;;
7104;SDS011;3594;42.152;24.714;2023-04-15T00:32:17;6.20;;;4.05;;
7104;SDS011;3594;42.152;24.714;2023-04-15T00:34:42;6.95;;;3.10;;
7104;SDS011;3594;42.152;24.714;2023-04-15T00:37:08;5.20;;;3.70;;
7104;SDS011;3594;42.152;24.714;2023-04-15T00:39:34;5.25;;;3.20;;
7104;SDS011;3594;42.152;24.714;2023-04-15T00:41:59;5.72;;;3.67;;
7104;SDS011;3594;42.152;24.714;2023-04-15T00:44:26;8.50;;;3.58;;
7104;SDS011;3594;42.152;24.714;2023-04-15T00:46:52;7.47;;;3.78;;
7104;SDS011;3594;42.152;24.714;2023-04-15T00:49:18;7.35;;;3.58;;
7104;SDS011;3594;42.152;24.714;2023-04-15T00:51:43;7.95;;;3.97;;
7104;SDS011;3594;42.152;24.714;2023-04-15T00:54:09;5.47;;;3.05;;
7104;SDS011;3594;42.152;24.714;2023-04-15T00:56:35;6.88;;;3.33;;
7104;SDS011;3594;42.152;24.714;2023-04-15T00:59:05;6.43;;;3.67;;
7104;SDS011;3594;42.152;24.714;2023-04-15T01:01:32;7.35;;;3.13;;
7104;SDS011;3594;42.152;24.714;2023-04-15T01:03:59;6.75;;;3.40;;
7104;SDS011;3594;42.152;24.714;2023-04-15T01:06:24;5.68;;;3.45;;
7104;SDS011;3594;42.152;24.714;2023-04-15T01:08:51;6.35;;;3.30;;
7104;SDS011;3594;42.152;24.714;2023-04-15T01:11:18;4.63;;;3.03;;
7104;SDS011;3594;42.152;24.714;2023-04-15T01:13:44;4.30;;;3.20;;
7104;SDS011;3594;42.152;24.714;2023-04-15T01:16:10;4.47;;;3.60;;
7104;SDS011;3594;42.152;24.714;2023-04-15T01:18:37;8.17;;;3.60;;
7104;SDS011;3594;42.152;24.714;2023-04-15T01:21:03;4.83;;;2.90;;
7104;SDS011;3594;42.152;24.714;2023-04-15T01:23:30;3.80;;;2.80;;
7104;SDS011;3594;42.152;24.714;2023-04-15T01:25:56;5.20;;;2.97;;
7104;SDS011;3594;42.152;24.714;2023-04-15T01:28:23;4.63;;;2.93;;
7104;SDS011;3594;42.152;24.714;2023-04-15T01:30:49;4.17;;;3.17;;
7104;SDS011;3594;42.152;24.714;2023-04-15T01:33:15;9.07;;;3.20;;
7104;SDS011;3594;42.152;24.714;2023-04-15T01:35:40;4.03;;;2.90;;
7104;SDS011;3594;42.152;24.714;2023-04-15T01:38:08;5.17;;;3.00;;
7104;SDS011;3594;42.152;24.714;2023-04-15T01:40:35;6.20;;;3.17;;
7104;SDS011;3594;42.152;24.714;2023-04-15T01:43:00;4.93;;;3.40;;
7104;SDS011;3594;42.152;24.714;2023-04-15T01:45:26;5.90;;;2.80;;
7104;SDS011;3594;42.152;24.714;2023-04-15T01:47:52;4.87;;;2.90;;
7104;SDS011;3594;42.152;24.714;2023-04-15T01:50:18;3.77;;;2.87;;
7104;SDS011;3594;42.152;24.714;2023-04-15T01:52:44;4.83;;;2.60;;
7104;SDS011;3594;42.152;24.714;2023-04-15T01:55:11;4.17;;;2.67;;
7104;SDS011;3594;42.152;24.714;2023-04-15T01:57:36;4.47;;;2.40;;
7104;SDS011;3594;42.152;24.714;2023-04-15T02:00:02;4.17;;;3.00;;
7104;SDS011;3594;42.152;24.714;2023-04-15T02:02:27;3.23;;;2.40;;
7104;SDS011;3594;42.152;24.714;2023-04-15T02:04:53;3.77;;;2.60;;
7104;SDS011;3594;42.152;24.714;2023-04-15T02:07:18;3.97;;;2.80;;
7104;SDS011;3594;42.152;24.714;2023-04-15T02:09:44;5.77;;;2.63;;
7104;SDS011;3594;42.152;24.714;2023-04-15T02:12:10;3.30;;;2.47;;
7104;SDS011;3594;42.152;24.714;2023-04-15T02:14:35;3.67;;;2.40;;
7104;SDS011;3594;42.152;24.714;2023-04-15T02:17:01;4.40;;;2.53;;
7104;SDS011;3594;42.152;24.714;2023-04-15T02:19:31;4.63;;;2.70;;
7104;SDS011;3594;42.152;24.714;2023-04-15T02:21:57;3.10;;;2.10;;
7104;SDS011;3594;42.152;24.714;2023-04-15T02:24:24;2.53;;;2.33;;
7104;SDS011;3594;42.152;24.714;2023-04-15T02:26:49;6.93;;;2.67;;
7104;SDS011;3594;42.152;24.714;2023-04-15T02:29:14;3.90;;;2.80;;
7104;SDS011;3594;42.152;24.714;2023-04-15T02:31:40;3.10;;;2.27;;
7104;SDS011;3594;42.152;24.714;2023-04-15T02:34:06;3.53;;;2.33;;
7104;SDS011;3594;42.152;24.714;2023-04-15T02:36:32;4.20;;;2.63;;
7104;SDS011;3594;42.152;24.714;2023-04-15T02:38:58;2.57;;;2.10;;
7104;SDS011;3594;42.152;24.714;2023-04-15T02:41:24;3.47;;;2.33;;
7104;SDS011;3594;42.152;24.714;2023-04-15T02:43:51;2.87;;;2.20;;
7104;SDS011;3594;42.152;24.714;2023-04-15T02:46:17;2.43;;;2.23;;
7104;SDS011;3594;42.152;24.714;2023-04-15T02:48:42;5.10;;;2.83;;
7104;SDS011;3594;42.152;24.714;2023-04-15T02:51:15;3.90;;;2.20;;
7104;SDS011;3594;42.152;24.714;2023-04-15T02:53:43;4.03;;;2.10;;
7104;SDS011;3594;42.152;24.714;2023-04-15T02:56:11;2.50;;;2.30;;
7104;SDS011;3594;42.152;24.714;2023-04-15T02:58:37;2.63;;;1.93;;
7104;SDS011;3594;42.152;24.714;2023-04-15T03:01:03;2.30;;;2.03;;
7104;SDS011;3594;42.152;24.714;2023-04-15T03:03:29;2.40;;;2.07;;
7104;SDS011;3594;42.152;24.714;2023-04-15T03:05:54;3.00;;;2.10;;
7104;SDS011;3594;42.152;24.714;2023-04-15T03:08:20;2.47;;;2.20;;
7104;SDS011;3594;42.152;24.714;2023-04-15T03:10:46;5.00;;;2.17;;
7104;SDS011;3594;42.152;24.714;2023-04-15T03:13:11;2.13;;;1.93;;
7104;SDS011;3594;42.152;24.714;2023-04-15T03:15:37;6.93;;;2.47;;
7104;SDS011;3594;42.152;24.714;2023-04-15T03:18:03;2.90;;;2.20;;
7104;SDS011;3594;42.152;24.714;2023-04-15T03:20:28;2.77;;;2.13;;
7104;SDS011;3594;42.152;24.714;2023-04-15T03:22:53;3.80;;;2.50;;
7104;SDS011;3594;42.152;24.714;2023-04-15T03:25:19;4.90;;;2.77;;
7104;SDS011;3594;42.152;24.714;2023-04-15T03:27:44;4.60;;;2.87;;
7104;SDS011;3594;42.152;24.714;2023-04-15T03:30:10;2.77;;;2.20;;
7104;SDS011;3594;42.152;24.714;2023-04-15T03:32:36;5.10;;;2.67;;
7104;SDS011;3594;42.152;24.714;2023-04-15T03:35:01;3.80;;;2.53;;
7104;SDS011;3594;42.152;24.714;2023-04-15T03:37:27;2.63;;;2.20;;
7104;SDS011;3594;42.152;24.714;2023-04-15T03:39:53;2.40;;;2.10;;
7104;SDS011;3594;42.152;24.714;2023-04-15T03:42:18;2.80;;;2.13;;
7104;SDS011;3594;42.152;24.714;2023-04-15T03:44:43;2.93;;;2.40;;
7104;SDS011;3594;42.152;24.714;2023-04-15T03:47:09;2.90;;;2.33;;
7104;SDS011;3594;42.152;24.714;2023-04-15T03:49:35;2.60;;;2.20;;
7104;SDS011;3594;42.152;24.714;2023-04-15T03:52:01;1.90;;;1.80;;
7104;SDS011;3594;42.152;24.714;2023-04-15T03:54:26;2.30;;;2.10;;
7104;SDS011;3594;42.152;24.714;2023-04-15T03:56:52;3.77;;;2.77;;
7104;SDS011;3594;42.152;24.714;2023-04-15T03:59:17;5.47;;;2.43;;
7104;SDS011;3594;42.152;24.714;2023-04-15T04:01:42;4.30;;;2.60;;
7104;SDS011;3594;42.152;24.714;2023-04-15T04:04:08;2.83;;;2.13;;
7104;SDS011;3594;42.152;24.714;2023-04-15T04:06:33;3.13;;;1.97;;
7104;SDS011;3594;42.152;24.714;2023-04-15T04:08:58;2.63;;;2.00;;
7104;SDS011;3594;42.152;24.714;2023-04-15T04:11:25;3.30;;;1.97;;
7104;SDS011;3594;42.152;24.714;2023-04-15T04:13:52;2.67;;;1.97;;
7104;SDS011;3594;42.152;24.714;2023-04-15T04:16:17;6.27;;;2.10;;
7104;SDS011;3594;42.152;24.714;2023-04-15T04:18:43;3.07;;;1.83;;
7104;SDS011;3594;42.152;24.714;2023-04-15T04:21:08;2.63;;;2.30;;
7104;SDS011;3594;42.152;24.714;2023-04-15T04:23:33;2.87;;;2.20;;
7104;SDS011;3594;42.152;24.714;2023-04-15T04:25:59;2.20;;;1.97;;
7104;SDS011;3594;42.152;24.714;2023-04-15T04:28:25;9.33;;;2.17;;
7104;SDS011;3594;42.152;24.714;2023-04-15T04:30:51;1.90;;;1.60;;
7104;SDS011;3594;42.152;24.714;2023-04-15T04:33:16;3.23;;;2.10;;
7104;SDS011;3594;42.152;24.714;2023-04-15T04:35:42;2.60;;;1.93;;
7104;SDS011;3594;42.152;24.714;2023-04-15T04:38:07;2.83;;;2.13;;
7104;SDS011;3594;42.152;24.714;2023-04-15T04:40:32;2.13;;;1.90;;
7104;SDS011;3594;42.152;24.714;2023-04-15T04:42:58;2.23;;;1.80;;
7104;SDS011;3594;42.152;24.714;2023-04-15T04:45:24;2.77;;;2.10;;
7104;SDS011;3594;42.152;24.714;2023-04-15T04:47:49;2.20;;;1.97;;
7104;SDS011;3594;42.152;24.714;2023-04-15T04:50:15;2.47;;;2.27;;
7104;SDS011;3594;42.152;24.714;2023-04-15T04:52:40;9.80;;;2.30;;
7104;SDS011;3594;42.152;24.714;2023-04-15T04:55:06;2.87;;;2.03;;
7104;SDS011;3594;42.152;24.714;2023-04-15T04:57:32;2.23;;;1.80;;
7104;SDS011;3594;42.152;24.714;2023-04-15T04:59:59;2.80;;;2.40;;
7104;SDS011;3594;42.152;24.714;2023-04-15T05:02:26;3.70;;;2.23;;
7104;SDS011;3594;42.152;24.714;2023-04-15T05:04:51;2.93;;;1.90;;
7104;SDS011;3594;42.152;24.714;2023-04-15T05:07:18;3.07;;;2.20;;
7104;SDS011;3594;42.152;24.714;2023-04-15T05:09:45;3.87;;;2.10;;
7104;SDS011;3594;42.152;24.714;2023-04-15T05:12:10;5.18;;;1.80;;
7104;SDS011;3594;42.152;24.714;2023-04-15T05:14:39;3.15;;;2.13;;
7104;SDS011;3594;42.152;24.714;2023-04-15T05:17:05;2.47;;;1.98;;
7104;SDS011;3594;42.152;24.714;2023-04-15T05:19:31;2.05;;;1.85;;
7104;SDS011;3594;42.152;24.714;2023-04-15T05:21:56;2.65;;;2.20;;
7104;SDS011;3594;42.152;24.714;2023-04-15T05:24:22;2.95;;;2.53;;
7104;SDS011;3594;42.152;24.714;2023-04-15T05:26:47;2.13;;;1.88;;
7104;SDS011;3594;42.152;24.714;2023-04-15T05:29:13;2.92;;;2.13;;
7104;SDS011;3594;42.152;24.714;2023-04-15T05:31:38;3.58;;;2.25;;
7104;SDS011;3594;42.152;24.714;2023-04-15T05:34:03;3.70;;;2.20;;
7104;SDS011;3594;42.152;24.714;2023-04-15T05:36:29;5.15;;;2.40;;
7104;SDS011;3594;42.152;24.714;2023-04-15T05:38:55;2.40;;;1.80;;
7104;SDS011;3594;42.152;24.714;2023-04-15T05:41:20;2.40;;;1.77;;
7104;SDS011;3594;42.152;24.714;2023-04-15T05:43:46;4.00;;;2.13;;
7104;SDS011;3594;42.152;24.714;2023-04-15T05:46:11;3.10;;;1.92;;
7104;SDS011;3594;42.152;24.714;2023-04-15T05:48:37;4.15;;;2.50;;
7104;SDS011;3594;42.152;24.714;2023-04-15T05:51:02;2.13;;;1.92;;
7104;SDS011;3594;42.152;24.714;2023-04-15T05:53:28;2.25;;;2.03;;
7104;SDS011;3594;42.152;24.714;2023-04-15T05:55:53;2.70;;;2.20;;
7104;SDS011;3594;42.152;24.714;2023-04-15T05:58:19;2.15;;;1.83;;
7104;SDS011;3594;42.152;24.714;2023-04-15T06:00:44;4.00;;;1.90;;
7104;SDS011;3594;42.152;24.714;2023-04-15T06:03:10;2.33;;;1.73;;
7104;SDS011;3594;42.152;24.714;2023-04-15T06:05:35;2.40;;;1.83;;
7104;SDS011;3594;42.152;24.714;2023-04-15T06:08:01;2.38;;;1.90;;
7104;SDS011;3594;42.152;24.714;2023-04-15T06:10:26;3.22;;;1.90;;
7104;SDS011;3594;42.152;24.714;2023-04-15T06:12:52;2.70;;;1.88;;
7104;SDS011;3594;42.152;24.714;2023-04-15T06:15:17;2.30;;;1.70;;
7104;SDS011;3594;42.152;24.714;2023-04-15T06:17:43;1.85;;;1.70;;
7104;SDS011;3594;42.152;24.714;2023-04-15T06:20:09;3.17;;;1.85;;
7104;SDS011;3594;42.152;24.714;2023-04-15T06:22:35;2.95;;;2.08;;
7104;SDS011;3594;42.152;24.714;2023-04-15T06:25:01;2.03;;;1.65;;
7104;SDS011;3594;42.152;24.714;2023-04-15T06:27:27;2.00;;;1.80;;
7104;SDS011;3594;42.152;24.714;2023-04-15T06:29:52;2.28;;;1.90;;
7104;SDS011;3594;42.152;24.714;2023-04-15T06:32:18;6.90;;;1.85;;
7104;SDS011;3594;42.152;24.714;2023-04-15T06:34:43;3.40;;;1.80;;
7104;SDS011;3594;42.152;24.714;2023-04-15T06:37:09;1.98;;;1.77;;
7104;SDS011;3594;42.152;24.714;2023-04-15T06:39:39;3.05;;;2.13;;
7104;SDS011;3594;42.152;24.714;2023-04-15T06:42:05;3.05;;;2.10;;
7104;SDS011;3594;42.152;24.714;2023-04-15T06:44:30;2.88;;;2.05;;
7104;SDS011;3594;42.152;24.714;2023-04-15T06:46:56;3.95;;;2.40;;
7104;SDS011;3594;42.152;24.714;2023-04-15T06:49:21;4.72;;;2.60;;
7104;SDS011;3594;42.152;24.714;2023-04-15T06:51:46;5.13;;;2.60;;
7104;SDS011;3594;42.152;24.714;2023-04-15T06:54:12;3.38;;;2.25;;
7104;SDS011;3594;42.152;24.714;2023-04-15T06:56:38;4.82;;;2.45;;
7104;SDS011;3594;42.152;24.714;2023-04-15T06:59:03;3.63;;;2.75;;
7104;SDS011;3594;42.152;24.714;2023-04-15T07:01:28;4.22;;;2.53;;
7104;SDS011;3594;42.152;24.714;2023-04-15T07:03:54;3.85;;;2.47;;
7104;SDS011;3594;42.152;24.714;2023-04-15T07:06:19;5.45;;;2.70;;
7104;SDS011;3594;42.152;24.714;2023-04-15T07:08:46;5.07;;;3.25;;
7104;SDS011;3594;42.152;24.714;2023-04-15T07:11:11;6.53;;;3.22;;
7104;SDS011;3594;42.152;24.714;2023-04-15T07:13:37;13.05;;;3.40;;
7104;SDS011;3594;42.152;24.714;2023-04-15T07:16:03;5.22;;;3.40;;
7104;SDS011;3594;42.152;24.714;2023-04-15T07:18:29;6.43;;;3.60;;
7104;SDS011;3594;42.152;24.714;2023-04-15T07:20:54;7.47;;;3.42;;
7104;SDS011;3594;42.152;24.714;2023-04-15T07:23:20;6.70;;;3.13;;
7104;SDS011;3594;42.152;24.714;2023-04-15T07:25:45;6.80;;;3.63;;
7104;SDS011;3594;42.152;24.714;2023-04-15T07:28:11;5.13;;;2.92;;
7104;SDS011;3594;42.152;24.714;2023-04-15T07:30:36;8.30;;;3.00;;
7104;SDS011;3594;42.152;24.714;2023-04-15T07:33:02;4.47;;;2.90;;
7104;SDS011;3594;42.152;24.714;2023-04-15T07:35:28;7.03;;;3.40;;
7104;SDS011;3594;42.152;24.714;2023-04-15T07:37:53;4.70;;;2.58;;
7104;SDS011;3594;42.152;24.714;2023-04-15T07:40:19;4.78;;;3.13;;
7104;SDS011;3594;42.152;24.714;2023-04-15T07:42:44;4.75;;;3.15;;
7104;SDS011;3594;42.152;24.714;2023-04-15T07:45:10;6.57;;;3.28;;
7104;SDS011;3594;42.152;24.714;2023-04-15T07:47:36;5.57;;;2.92;;
7104;SDS011;3594;42.152;24.714;2023-04-15T07:50:02;4.70;;;2.85;;
7104;SDS011;3594;42.152;24.714;2023-04-15T07:52:27;2.97;;;2.33;;
7104;SDS011;3594;42.152;24.714;2023-04-15T07:54:53;3.20;;;2.30;;
7104;SDS011;3594;42.152;24.714;2023-04-15T07:57:18;3.15;;;2.35;;
7104;SDS011;3594;42.152;24.714;2023-04-15T07:59:44;3.28;;;2.40;;
7104;SDS011;3594;42.152;24.714;2023-04-15T08:02:09;3.50;;;2.25;;
7104;SDS011;3594;42.152;24.714;2023-04-15T08:04:35;2.92;;;2.40;;
7104;SDS011;3594;42.152;24.714;2023-04-15T08:07:01;4.43;;;2.42;;
7104;SDS011;3594;42.152;24.714;2023-04-15T08:09:28;3.10;;;2.15;;
7104;SDS011;3594;42.152;24.714;2023-04-15T08:11:53;3.83;;;2.15;;
7104;SDS011;3594;42.152;24.714;2023-04-15T08:14:19;3.83;;;2.13;;
7104;SDS011;3594;42.152;24.714;2023-04-15T08:16:44;2.92;;;2.08;;
7104;SDS011;3594;42.152;24.714;2023-04-15T08:19:10;2.72;;;2.10;;
7104;SDS011;3594;42.152;24.714;2023-04-15T08:21:36;3.25;;;2.33;;
7104;SDS011;3594;42.152;24.714;2023-04-15T08:24:01;4.20;;;2.65;;
7104;SDS011;3594;42.152;24.714;2023-04-15T08:26:27;4.60;;;2.65;;
7104;SDS011;3594;42.152;24.714;2023-04-15T08:28:52;4.35;;;2.70;;
7104;SDS011;3594;42.152;24.714;2023-04-15T08:31:18;3.78;;;2.42;;
7104;SDS011;3594;42.152;24.714;2023-04-15T08:33:43;4.35;;;2.20;;
7104;SDS011;3594;42.152;24.714;2023-04-15T08:36:10;2.70;;;2.05;;
7104;SDS011;3594;42.152;24.714;2023-04-15T08:38:36;5.45;;;2.50;;
7104;SDS011;3594;42.152;24.714;2023-04-15T08:41:03;3.25;;;2.38;;
7104;SDS011;3594;42.152;24.714;2023-04-15T08:43:34;3.35;;;2.13;;
7104;SDS011;3594;42.152;24.714;2023-04-15T08:46:07;3.15;;;2.10;;
7104;SDS011;3594;42.152;24.714;2023-04-15T08:48:33;4.80;;;2.22;;
7104;SDS011;3594;42.152;24.714;2023-04-15T08:51:02;4.82;;;2.13;;
7104;SDS011;3594;42.152;24.714;2023-04-15T08:53:28;2.60;;;1.90;;
7104;SDS011;3594;42.152;24.714;2023-04-15T08:55:55;2.70;;;2.10;;
7104;SDS011;3594;42.152;24.714;2023-04-15T08:58:21;2.90;;;2.13;;
7104;SDS011;3594;42.152;24.714;2023-04-15T09:00:48;6.20;;;2.28;;
7104;SDS011;3594;42.152;24.714;2023-04-15T09:03:14;3.58;;;2.00;;
7104;SDS011;3594;42.152;24.714;2023-04-15T09:05:41;3.38;;;2.40;;
7104;SDS011;3594;42.152;24.714;2023-04-15T09:08:07;2.72;;;2.13;;
7104;SDS011;3594;42.152;24.714;2023-04-15T09:10:33;3.00;;;1.85;;
7104;SDS011;3594;42.152;24.714;2023-04-15T09:12:58;2.97;;;1.70;;
7104;SDS011;3594;42.152;24.714;2023-04-15T09:15:24;5.10;;;1.95;;
7104;SDS011;3594;42.152;24.714;2023-04-15T09:17:51;3.47;;;2.17;;
7104;SDS011;3594;42.152;24.714;2023-04-15T09:20:17;2.60;;;1.80;;
7104;SDS011;3594;42.152;24.714;2023-04-15T09:22:44;2.33;;;1.73;;
7104;SDS011;3594;42.152;24.714;2023-04-15T09:27:48;3.55;;;2.28;;
7104;SDS011;3594;42.152;24.714;2023-04-15T09:30:14;3.97;;;2.20;;
7104;SDS011;3594;42.152;24.714;2023-04-15T09:32:50;6.32;;;2.20;;
7104;SDS011;3594;42.152;24.714;2023-04-15T09:35:17;3.67;;;2.00;;
7104;SDS011;3594;42.152;24.714;2023-04-15T09:37:43;3.53;;;2.08;;
7104;SDS011;3594;42.152;24.714;2023-04-15T09:40:08;2.63;;;1.77;;
7104;SDS011;3594;42.152;24.714;2023-04-15T09:42:34;4.70;;;1.73;;
7104;SDS011;3594;42.152;24.714;2023-04-15T09:45:08;2.95;;;2.13;;
7104;SDS011;3594;42.152;24.714;2023-04-15T09:47:36;2.65;;;1.90;;
7104;SDS011;3594;42.152;24.714;2023-04-15T09:50:02;3.97;;;1.80;;
7104;SDS011;3594;42.152;24.714;2023-04-15T09:52:28;3.67;;;1.92;;
7104;SDS011;3594;42.152;24.714;2023-04-15T09:54:55;2.53;;;1.77;;
7104;SDS011;3594;42.152;24.714;2023-04-15T09:57:22;2.70;;;1.90;;
7104;SDS011;3594;42.152;24.714;2023-04-15T09:59:48;3.65;;;2.17;;
7104;SDS011;3594;42.152;24.714;2023-04-15T10:02:14;3.58;;;2.00;;
7104;SDS011;3594;42.152;24.714;2023-04-15T10:04:40;2.60;;;1.95;;
7104;SDS011;3594;42.152;24.714;2023-04-15T10:07:07;3.83;;;1.88;;
7104;SDS011;3594;42.152;24.714;2023-04-15T10:09:34;3.33;;;1.90;;
7104;SDS011;3594;42.152;24.714;2023-04-15T10:12:01;3.17;;;1.80;;
7104;SDS011;3594;42.152;24.714;2023-04-15T10:14:30;1.92;;;1.63;;
7104;SDS011;3594;42.152;24.714;2023-04-15T10:16:58;2.15;;;1.70;;
7104;SDS011;3594;42.152;24.714;2023-04-15T10:19:25;2.72;;;1.80;;
7104;SDS011;3594;42.152;24.714;2023-04-15T10:21:51;1.50;;;1.30;;
7104;SDS011;3594;42.152;24.714;2023-04-15T10:24:18;2.65;;;1.63;;
7104;SDS011;3594;42.152;24.714;2023-04-15T10:26:45;4.68;;;1.60;;
7104;SDS011;3594;42.152;24.714;2023-04-15T10:29:10;3.17;;;1.80;;
7104;SDS011;3594;42.152;24.714;2023-04-15T10:31:36;1.67;;;1.48;;
7104;SDS011;3594;42.152;24.714;2023-04-15T10:34:03;1.60;;;1.40;;
7104;SDS011;3594;42.152;24.714;2023-04-15T10:36:31;5.70;;;1.67;;
7104;SDS011;3594;42.152;24.714;2023-04-15T10:38:57;1.85;;;1.60;;
7104;SDS011;3594;42.152;24.714;2023-04-15T10:41:26;2.33;;;1.70;;
7104;SDS011;3594;42.152;24.714;2023-04-15T10:44:02;2.00;;;1.52;;
7104;SDS011;3594;42.152;24.714;2023-04-15T10:49:10;3.42;;;1.83;;
7104;SDS011;3594;42.152;24.714;2023-04-15T10:51:37;3.97;;;1.60;;
7104;SDS011;3594;42.152;24.714;2023-04-15T10:54:29;2.70;;;1.90;;
7104;SDS011;3594;42.152;24.714;2023-04-15T10:59:28;5.32;;;2.40;;
7104;SDS011;3594;42.152;24.714;2023-04-15T11:01:55;3.92;;;2.60;;
7104;SDS011;3594;42.152;24.714;2023-04-15T11:05:06;3.63;;;2.38;;
7104;SDS011;3594;42.152;24.714;2023-04-15T11:07:31;3.42;;;2.30;;
7104;SDS011;3594;42.152;24.714;2023-04-15T11:12:38;4.18;;;2.55;;
7104;SDS011;3594;42.152;24.714;2023-04-15T11:17:57;4.18;;;2.60;;
7104;SDS011;3594;42.152;24.714;2023-04-15T11:20:48;3.90;;;2.47;;
7104;SDS011;3594;42.152;24.714;2023-04-15T11:23:16;3.00;;;2.17;;
7104;SDS011;3594;42.152;24.714;2023-04-15T11:25:43;3.38;;;2.42;;
7104;SDS011;3594;42.152;24.714;2023-04-15T11:28:09;4.57;;;2.30;;
7104;SDS011;3594;42.152;24.714;2023-04-15T11:30:35;3.30;;;2.33;;
7104;SDS011;3594;42.152;24.714;2023-04-15T11:33:02;4.28;;;2.60;;
7104;SDS011;3594;42.152;24.714;2023-04-15T11:35:32;3.10;;;2.35;;
7104;SDS011;3594;42.152;24.714;2023-04-15T11:38:01;5.75;;;2.60;;
7104;SDS011;3594;42.152;24.714;2023-04-15T11:40:28;5.00;;;2.58;;
7104;SDS011;3594;42.152;24.714;2023-04-15T11:45:36;4.85;;;2.67;;
7104;SDS011;3594;42.152;24.714;2023-04-15T11:48:09;4.18;;;2.67;;
7104;SDS011;3594;42.152;24.714;2023-04-15T11:50:36;4.38;;;2.53;;
7104;SDS011;3594;42.152;24.714;2023-04-15T11:53:04;3.65;;;2.47;;
7104;SDS011;3594;42.152;24.714;2023-04-15T11:55:40;3.20;;;2.30;;
7104;SDS011;3594;42.152;24.714;2023-04-15T11:58:28;4.43;;;2.38;;
7104;SDS011;3594;42.152;24.714;2023-04-15T12:00:55;2.92;;;1.92;;
7104;SDS011;3594;42.152;24.714;2023-04-15T12:03:23;2.97;;;2.25;;
7104;SDS011;3594;42.152;24.714;2023-04-15T12:06:09;3.70;;;2.30;;
7104;SDS011;3594;42.152;24.714;2023-04-15T12:08:50;3.45;;;2.05;;
7104;SDS011;3594;42.152;24.714;2023-04-15T12:11:20;4.65;;;2.30;;
7104;SDS011;3594;42.152;24.714;2023-04-15T12:13:56;3.05;;;2.05;;
7104;SDS011;3594;42.152;24.714;2023-04-15T12:16:21;4.07;;;2.30;;
7104;SDS011;3594;42.152;24.714;2023-04-15T12:18:51;4.75;;;2.40;;
7104;SDS011;3594;42.152;24.714;2023-04-15T12:21:20;2.58;;;1.83;;
7104;SDS011;3594;42.152;24.714;2023-04-15T12:23:56;3.70;;;2.00;;
7104;SDS011;3594;42.152;24.714;2023-04-15T12:26:30;2.42;;;2.10;;
7104;SDS011;3594;42.152;24.714;2023-04-15T12:29:16;2.88;;;1.60;;
7104;SDS011;3594;42.152;24.714;2023-04-15T12:31:46;2.33;;;1.80;;
7104;SDS011;3594;42.152;24.714;2023-04-15T12:34:14;2.20;;;1.67;;
7104;SDS011;3594;42.152;24.714;2023-04-15T12:36:39;3.25;;;1.83;;
7104;SDS011;3594;42.152;24.714;2023-04-15T12:39:05;1.50;;;1.40;;
7104;SDS011;3594;42.152;24.714;2023-04-15T12:41:31;1.88;;;1.58;;
7104;SDS011;3594;42.152;24.714;2023-04-15T12:43:57;2.97;;;1.80;;
7104;SDS011;3594;42.152;24.714;2023-04-15T12:46:23;1.67;;;1.50;;
7104;SDS011;3594;42.152;24.714;2023-04-15T12:48:49;3.17;;;1.38;;
7104;SDS011;3594;42.152;24.714;2023-04-15T12:51:16;2.47;;;1.45;;
7104;SDS011;3594;42.152;24.714;2023-04-15T12:53:41;4.10;;;1.58;;
7104;SDS011;3594;42.152;24.714;2023-04-15T12:56:07;3.40;;;1.55;;
7104;SDS011;3594;42.152;24.714;2023-04-15T12:58:32;3.25;;;1.50;;
7104;SDS011;3594;42.152;24.714;2023-04-15T13:00:57;3.03;;;1.63;;
7104;SDS011;3594;42.152;24.714;2023-04-15T13:03:23;4.80;;;1.83;;
7104;SDS011;3594;42.152;24.714;2023-04-15T13:05:49;4.32;;;1.90;;
7104;SDS011;3594;42.152;24.714;2023-04-15T13:08:14;4.18;;;1.80;;
7104;SDS011;3594;42.152;24.714;2023-04-15T13:10:40;1.75;;;1.58;;
7104;SDS011;3594;42.152;24.714;2023-04-15T13:13:06;5.57;;;2.00;;
7104;SDS011;3594;42.152;24.714;2023-04-15T13:15:31;1.80;;;1.58;;
7104;SDS011;3594;42.152;24.714;2023-04-15T13:17:57;1.42;;;1.10;;
7104;SDS011;3594;42.152;24.714;2023-04-15T13:20:24;1.70;;;1.40;;
7104;SDS011;3594;42.152;24.714;2023-04-15T13:22:51;1.70;;;1.60;;
7104;SDS011;3594;42.152;24.714;2023-04-15T13:25:16;4.43;;;1.63;;
7104;SDS011;3594;42.152;24.714;2023-04-15T13:27:42;1.92;;;1.60;;
7104;SDS011;3594;42.152;24.714;2023-04-15T13:30:07;2.40;;;1.58;;
7104;SDS011;3594;42.152;24.714;2023-04-15T13:32:33;1.60;;;1.45;;
7104;SDS011;3594;42.152;24.714;2023-04-15T13:34:59;1.55;;;1.45;;
7104;SDS011;3594;42.152;24.714;2023-04-15T13:37:27;2.20;;;1.60;;
7104;SDS011;3594;42.152;24.714;2023-04-15T13:39:53;1.88;;;1.40;;
7104;SDS011;3594;42.152;24.714;2023-04-15T13:42:20;2.40;;;1.35;;
7104;SDS011;3594;42.152;24.714;2023-04-15T13:44:45;1.60;;;1.40;;
7104;SDS011;3594;42.152;24.714;2023-04-15T13:47:11;1.50;;;1.40;;
7104;SDS011;3594;42.152;24.714;2023-04-15T13:49:38;1.63;;;1.40;;
7104;SDS011;3594;42.152;24.714;2023-04-15T13:52:04;1.67;;;1.58;;
7104;SDS011;3594;42.152;24.714;2023-04-15T13:54:30;1.85;;;1.50;;
7104;SDS011;3594;42.152;24.714;2023-04-15T13:56:55;3.05;;;1.63;;
7104;SDS011;3594;42.152;24.714;2023-04-15T13:59:22;3.42;;;1.30;;
7104;SDS011;3594;42.152;24.714;2023-04-15T14:01:47;2.80;;;1.55;;
7104;SDS011;3594;42.152;24.714;2023-04-15T14:04:13;1.73;;;1.40;;
7104;SDS011;3594;42.152;24.714;2023-04-15T14:06:38;2.15;;;1.40;;
7104;SDS011;3594;42.152;24.714;2023-04-15T14:09:04;2.28;;;1.52;;
7104;SDS011;3594;42.152;24.714;2023-04-15T14:11:29;2.05;;;1.60;;
7104;SDS011;3594;42.152;24.714;2023-04-15T14:13:55;4.10;;;1.67;;
7104;SDS011;3594;42.152;24.714;2023-04-15T14:16:20;1.70;;;1.50;;
7104;SDS011;3594;42.152;24.714;2023-04-15T14:18:46;1.42;;;1.25;;
7104;SDS011;3594;42.152;24.714;2023-04-15T14:21:11;1.50;;;1.30;;
7104;SDS011;3594;42.152;24.714;2023-04-15T14:23:37;1.58;;;1.48;;
7104;SDS011;3594;42.152;24.714;2023-04-15T14:26:02;2.35;;;1.65;;
7104;SDS011;3594;42.152;24.714;2023-04-15T14:28:28;1.90;;;1.45;;
7104;SDS011;3594;42.152;24.714;2023-04-15T14:30:53;1.80;;;1.20;;
7104;SDS011;3594;42.152;24.714;2023-04-15T14:33:18;2.60;;;1.35;;
7104;SDS011;3594;42.152;24.714;2023-04-15T14:35:44;2.08;;;1.40;;
7104;SDS011;3594;42.152;24.714;2023-04-15T14:38:09;2.63;;;1.38;;
7104;SDS011;3594;42.152;24.714;2023-04-15T14:40:35;3.20;;;1.60;;
7104;SDS011;3594;42.152;24.714;2023-04-15T14:43:01;2.28;;;1.60;;
7104;SDS011;3594;42.152;24.714;2023-04-15T14:45:26;2.58;;;1.65;;
7104;SDS011;3594;42.152;24.714;2023-04-15T14:47:52;4.05;;;1.77;;
7104;SDS011;3594;42.152;24.714;2023-04-15T14:50:18;4.07;;;1.60;;
7104;SDS011;3594;42.152;24.714;2023-04-15T14:52:43;4.85;;;1.58;;
7104;SDS011;3594;42.152;24.714;2023-04-15T14:55:09;6.43;;;2.35;;
7104;SDS011;3594;42.152;24.714;2023-04-15T14:57:36;2.05;;;1.38;;
7104;SDS011;3594;42.152;24.714;2023-04-15T15:00:02;2.30;;;1.40;;
7104;SDS011;3594;42.152;24.714;2023-04-15T15:02:28;1.85;;;1.25;;
7104;SDS011;3594;42.152;24.714;2023-04-15T15:04:54;2.67;;;1.60;;
7104;SDS011;3594;42.152;24.714;2023-04-15T15:07:21;3.47;;;1.50;;
7104;SDS011;3594;42.152;24.714;2023-04-15T15:09:47;1.40;;;1.30;;
7104;SDS011;3594;42.152;24.714;2023-04-15T15:12:13;1.67;;;1.58;;